Impacts TAF Board
For situational awareness. Not to be used for flight planning purposes.
IDs:

KDTW - Detroit Metro/Wayne, MI, US

Issued at 1418 UTC 05 Apr 2020
Updated at 1430 UTC 05 Apr 2020
Potential Impact None Slight Moderate High
Time1353Z 05/15Z 05/16Z 05/17Z 05/18Z 05/19Z 05/20Z 05/21Z 05/22Z 05/23Z 06/00Z 06/01Z 06/02Z 06/03Z>>
Type OBS PRVL PRVL PRVL PRVL PRVL PRVL PRVL PRVL PRVL PRVL PRVL PRVL PRVL
VIS 10 >6 >6 >6 >6 >6 >6 >6 >6 >6 >6 >6 >6 >6
CIG 18 18 25 25 25 25 -- -- -- -- -- -- -- --
Cover OVC BKN BKN BKN BKN BKN SKC SKC SKC SKC SKC SKC SKC SKC
FltCat MVFR MVFR MVFR MVFR MVFR MVFR VFR VFR VFR VFR VFR VFR VFR VFR
WX -- -- -- -- -- -- -- -- -- -- -- -- -- --
WDir 30 30 30 30 30 30 60 60 60 60 60 60 60 60
WSpd 7 7 7 7 7 7 5 5 5 5 5 5 5 5
WGst -- -- -- -- -- -- -- -- -- -- -- -- -- --
Raw TAF
KDTW 051418Z 0514/0618 03007KT P6SM BKN018
  FM051600 03007KT P6SM BKN025
  FM052000 06005KT P6SM SKC
  FM061200 13005KT P6SM SKC


Raw METAR
KDTW 051353Z 03007KT 10SM OVC018 06/01 A3018 RMK AO2 SLP222 T00560011
KDTW 051317Z 02007KT 10SM OVC015 06/01 A3017 RMK AO2 T00560011
KDTW 051253Z 01009KT 10SM OVC013 06/02 A3016 RMK AO2 SLP217 T00560017
KDTW 051153Z 34008KT 10SM OVC013 06/02 A3014 RMK AO2 SLP208 T00560022 10078 20056 51014

METAR Board
Radar Display
Forecast Discussion
For situational awareness. Not to be used for flight planning purposes.